sensor_id;sensor_type;location;lat;lon;timestamp;P1;durP1;ratioP1;P2;durP2;ratioP2
35128;SDS011;21301;43.626;10.580;2023-06-22T00:02:16;6.25;;;4.28;;
35128;SDS011;21301;43.626;10.580;2023-06-22T00:04:42;8.75;;;4.50;;
35128;SDS011;21301;43.626;10.580;2023-06-22T00:07:08;13.27;;;5.10;;
35128;SDS011;21301;43.626;10.580;2023-06-22T00:09:34;8.32;;;5.00;;
35128;SDS011;21301;43.626;10.580;2023-06-22T00:11:59;7.93;;;4.10;;
35128;SDS011;21301;43.626;10.580;2023-06-22T00:14:25;8.32;;;4.95;;
35128;SDS011;21301;43.626;10.580;2023-06-22T00:16:51;8.98;;;5.25;;
35128;SDS011;21301;43.626;10.580;2023-06-22T00:19:22;7.43;;;4.85;;
35128;SDS011;21301;43.626;10.580;2023-06-22T00:21:49;8.77;;;4.63;;
35128;SDS011;21301;43.626;10.580;2023-06-22T00:24:18;8.95;;;4.18;;
35128;SDS011;21301;43.626;10.580;2023-06-22T00:26:45;9.50;;;5.00;;
35128;SDS011;21301;43.626;10.580;2023-06-22T00:29:11;8.18;;;4.45;;
35128;SDS011;21301;43.626;10.580;2023-06-22T00:31:36;8.88;;;5.60;;
35128;SDS011;21301;43.626;10.580;2023-06-22T00:34:02;9.75;;;4.82;;
35128;SDS011;21301;43.626;10.580;2023-06-22T00:36:28;8.88;;;4.80;;
35128;SDS011;21301;43.626;10.580;2023-06-22T00:38:54;6.97;;;4.45;;
35128;SDS011;21301;43.626;10.580;2023-06-22T00:41:19;9.38;;;4.93;;
35128;SDS011;21301;43.626;10.580;2023-06-22T00:43:45;6.20;;;3.80;;
35128;SDS011;21301;43.626;10.580;2023-06-22T00:46:11;9.63;;;4.65;;
35128;SDS011;21301;43.626;10.580;2023-06-22T00:48:37;6.63;;;4.03;;
35128;SDS011;21301;43.626;10.580;2023-06-22T00:51:05;6.28;;;4.03;;
35128;SDS011;21301;43.626;10.580;2023-06-22T00:53:31;12.05;;;4.57;;
35128;SDS011;21301;43.626;10.580;2023-06-22T00:56:00;6.95;;;4.60;;
35128;SDS011;21301;43.626;10.580;2023-06-22T00:58:28;7.30;;;4.97;;
35128;SDS011;21301;43.626;10.580;2023-06-22T01:00:54;9.93;;;4.80;;
35128;SDS011;21301;43.626;10.580;2023-06-22T01:03:20;8.05;;;5.20;;
35128;SDS011;21301;43.626;10.580;2023-06-22T01:05:46;8.98;;;5.68;;
35128;SDS011;21301;43.626;10.580;2023-06-22T01:08:22;13.35;;;5.07;;
35128;SDS011;21301;43.626;10.580;2023-06-22T01:11:20;9.00;;;4.88;;
35128;SDS011;21301;43.626;10.580;2023-06-22T01:16:41;9.10;;;4.55;;
35128;SDS011;21301;43.626;10.580;2023-06-22T01:19:25;9.20;;;5.40;;
35128;SDS011;21301;43.626;10.580;2023-06-22T01:24:32;7.95;;;4.72;;
35128;SDS011;21301;43.626;10.580;2023-06-22T01:29:57;7.30;;;4.15;;
35128;SDS011;21301;43.626;10.580;2023-06-22T01:32:33;8.32;;;4.50;;
35128;SDS011;21301;43.626;10.580;2023-06-22T01:35:01;8.32;;;4.53;;
35128;SDS011;21301;43.626;10.580;2023-06-22T01:37:30;7.32;;;4.35;;
35128;SDS011;21301;43.626;10.580;2023-06-22T01:39:57;10.57;;;4.60;;
35128;SDS011;21301;43.626;10.580;2023-06-22T01:42:24;8.27;;;4.40;;
35128;SDS011;21301;43.626;10.580;2023-06-22T01:44:51;9.93;;;5.20;;
35128;SDS011;21301;43.626;10.580;2023-06-22T01:47:18;8.05;;;4.60;;
35128;SDS011;21301;43.626;10.580;2023-06-22T01:49:45;7.45;;;4.68;;
35128;SDS011;21301;43.626;10.580;2023-06-22T01:52:11;9.80;;;4.57;;
35128;SDS011;21301;43.626;10.580;2023-06-22T01:54:38;8.63;;;5.10;;
35128;SDS011;21301;43.626;10.580;2023-06-22T01:57:05;7.03;;;4.85;;
35128;SDS011;21301;43.626;10.580;2023-06-22T01:59:32;8.07;;;5.15;;
35128;SDS011;21301;43.626;10.580;2023-06-22T02:02:06;6.45;;;4.30;;
35128;SDS011;21301;43.626;10.580;2023-06-22T02:04:36;8.52;;;4.15;;
35128;SDS011;21301;43.626;10.580;2023-06-22T02:07:12;7.78;;;4.88;;
35128;SDS011;21301;43.626;10.580;2023-06-22T02:09:42;10.68;;;4.75;;
35128;SDS011;21301;43.626;10.580;2023-06-22T02:12:13;11.18;;;4.57;;
35128;SDS011;21301;43.626;10.580;2023-06-22T02:14:43;6.32;;;4.30;;
35128;SDS011;21301;43.626;10.580;2023-06-22T02:17:11;7.85;;;4.70;;
35128;SDS011;21301;43.626;10.580;2023-06-22T02:19:42;7.63;;;5.03;;
35128;SDS011;21301;43.626;10.580;2023-06-22T02:22:07;11.10;;;5.07;;
35128;SDS011;21301;43.626;10.580;2023-06-22T02:24:33;7.20;;;4.25;;
35128;SDS011;21301;43.626;10.580;2023-06-22T02:27:00;6.75;;;4.35;;
35128;SDS011;21301;43.626;10.580;2023-06-22T02:29:26;8.80;;;4.38;;
35128;SDS011;21301;43.626;10.580;2023-06-22T02:31:53;7.43;;;4.95;;
35128;SDS011;21301;43.626;10.580;2023-06-22T02:34:19;8.43;;;4.70;;
35128;SDS011;21301;43.626;10.580;2023-06-22T02:36:45;9.13;;;5.07;;
35128;SDS011;21301;43.626;10.580;2023-06-22T02:39:19;11.15;;;4.03;;
35128;SDS011;21301;43.626;10.580;2023-06-22T02:41:49;7.17;;;4.40;;
35128;SDS011;21301;43.626;10.580;2023-06-22T02:44:15;7.30;;;4.78;;
35128;SDS011;21301;43.626;10.580;2023-06-22T02:46:41;8.85;;;4.75;;
35128;SDS011;21301;43.626;10.580;2023-06-22T02:49:08;10.65;;;5.07;;
35128;SDS011;21301;43.626;10.580;2023-06-22T02:51:34;8.98;;;5.47;;
35128;SDS011;21301;43.626;10.580;2023-06-22T02:54:00;9.40;;;5.38;;
35128;SDS011;21301;43.626;10.580;2023-06-22T02:56:28;9.07;;;5.60;;
35128;SDS011;21301;43.626;10.580;2023-06-22T02:58:58;14.57;;;5.28;;
35128;SDS011;21301;43.626;10.580;2023-06-22T03:05:15;8.50;;;5.40;;
35128;SDS011;21301;43.626;10.580;2023-06-22T03:07:43;11.25;;;5.75;;
35128;SDS011;21301;43.626;10.580;2023-06-22T03:10:10;9.07;;;5.40;;
35128;SDS011;21301;43.626;10.580;2023-06-22T03:12:37;9.02;;;5.15;;
35128;SDS011;21301;43.626;10.580;2023-06-22T03:15:07;8.27;;;5.85;;
35128;SDS011;21301;43.626;10.580;2023-06-22T03:17:34;8.82;;;5.03;;
35128;SDS011;21301;43.626;10.580;2023-06-22T03:20:04;9.10;;;5.40;;
35128;SDS011;21301;43.626;10.580;2023-06-22T03:22:34;9.23;;;4.95;;
35128;SDS011;21301;43.626;10.580;2023-06-22T03:25:05;8.85;;;5.60;;
35128;SDS011;21301;43.626;10.580;2023-06-22T03:27:38;11.95;;;5.25;;
35128;SDS011;21301;43.626;10.580;2023-06-22T03:30:08;6.68;;;4.68;;
35128;SDS011;21301;43.626;10.580;2023-06-22T03:32:35;10.98;;;5.55;;
35128;SDS011;21301;43.626;10.580;2023-06-22T03:35:01;7.45;;;4.57;;
35128;SDS011;21301;43.626;10.580;2023-06-22T03:37:28;8.23;;;5.50;;
35128;SDS011;21301;43.626;10.580;2023-06-22T03:39:54;7.13;;;5.05;;
35128;SDS011;21301;43.626;10.580;2023-06-22T03:42:20;8.90;;;4.60;;
35128;SDS011;21301;43.626;10.580;2023-06-22T03:44:46;12.40;;;4.55;;
35128;SDS011;21301;43.626;10.580;2023-06-22T03:47:12;9.45;;;4.82;;
35128;SDS011;21301;43.626;10.580;2023-06-22T03:49:39;8.65;;;4.72;;
35128;SDS011;21301;43.626;10.580;2023-06-22T03:52:05;10.77;;;4.88;;
35128;SDS011;21301;43.626;10.580;2023-06-22T03:54:31;9.85;;;5.40;;
35128;SDS011;21301;43.626;10.580;2023-06-22T03:56:57;7.00;;;5.00;;
35128;SDS011;21301;43.626;10.580;2023-06-22T03:59:23;8.20;;;5.50;;
35128;SDS011;21301;43.626;10.580;2023-06-22T04:01:50;9.15;;;4.47;;
35128;SDS011;21301;43.626;10.580;2023-06-22T04:04:19;9.73;;;4.30;;
35128;SDS011;21301;43.626;10.580;2023-06-22T04:06:45;8.45;;;4.72;;
35128;SDS011;21301;43.626;10.580;2023-06-22T04:09:11;18.50;;;4.85;;
35128;SDS011;21301;43.626;10.580;2023-06-22T04:11:37;6.55;;;4.63;;
35128;SDS011;21301;43.626;10.580;2023-06-22T04:14:03;7.72;;;4.93;;
35128;SDS011;21301;43.626;10.580;2023-06-22T04:16:28;11.10;;;5.75;;
35128;SDS011;21301;43.626;10.580;2023-06-22T04:18:54;9.32;;;5.57;;
35128;SDS011;21301;43.626;10.580;2023-06-22T04:21:20;9.10;;;5.28;;
35128;SDS011;21301;43.626;10.580;2023-06-22T04:23:46;9.85;;;5.28;;
35128;SDS011;21301;43.626;10.580;2023-06-22T04:26:12;9.52;;;5.50;;
35128;SDS011;21301;43.626;10.580;2023-06-22T04:28:39;12.00;;;5.05;;
35128;SDS011;21301;43.626;10.580;2023-06-22T04:31:05;9.70;;;4.75;;
35128;SDS011;21301;43.626;10.580;2023-06-22T04:33:31;9.57;;;4.93;;
35128;SDS011;21301;43.626;10.580;2023-06-22T04:35:57;8.20;;;5.15;;
35128;SDS011;21301;43.626;10.580;2023-06-22T04:38:26;7.93;;;4.35;;
35128;SDS011;21301;43.626;10.580;2023-06-22T04:40:52;8.48;;;5.10;;
35128;SDS011;21301;43.626;10.580;2023-06-22T04:43:18;9.75;;;6.78;;
35128;SDS011;21301;43.626;10.580;2023-06-22T04:45:44;8.13;;;4.90;;
35128;SDS011;21301;43.626;10.580;2023-06-22T04:48:10;9.60;;;5.72;;
35128;SDS011;21301;43.626;10.580;2023-06-22T04:50:41;8.18;;;5.35;;
35128;SDS011;21301;43.626;10.580;2023-06-22T04:53:07;7.85;;;5.30;;
35128;SDS011;21301;43.626;10.580;2023-06-22T04:55:34;14.63;;;5.38;;
35128;SDS011;21301;43.626;10.580;2023-06-22T04:58:03;11.48;;;5.63;;
35128;SDS011;21301;43.626;10.580;2023-06-22T05:00:30;10.07;;;5.22;;
35128;SDS011;21301;43.626;10.580;2023-06-22T05:02:56;7.78;;;5.38;;
35128;SDS011;21301;43.626;10.580;2023-06-22T05:05:23;11.00;;;5.53;;
35128;SDS011;21301;43.626;10.580;2023-06-22T05:07:49;8.40;;;4.65;;
35128;SDS011;21301;43.626;10.580;2023-06-22T05:10:20;9.02;;;5.00;;
35128;SDS011;21301;43.626;10.580;2023-06-22T05:12:46;8.63;;;4.88;;
35128;SDS011;21301;43.626;10.580;2023-06-22T05:15:12;10.18;;;5.18;;
35128;SDS011;21301;43.626;10.580;2023-06-22T05:17:38;8.50;;;5.50;;
35128;SDS011;21301;43.626;10.580;2023-06-22T05:20:10;10.20;;;5.43;;
35128;SDS011;21301;43.626;10.580;2023-06-22T05:22:36;9.23;;;6.03;;
35128;SDS011;21301;43.626;10.580;2023-06-22T05:25:02;12.70;;;5.93;;
35128;SDS011;21301;43.626;10.580;2023-06-22T05:27:28;14.73;;;6.45;;
35128;SDS011;21301;43.626;10.580;2023-06-22T05:29:54;9.15;;;5.63;;
35128;SDS011;21301;43.626;10.580;2023-06-22T05:32:20;12.48;;;6.38;;
35128;SDS011;21301;43.626;10.580;2023-06-22T05:34:46;11.32;;;6.43;;
35128;SDS011;21301;43.626;10.580;2023-06-22T05:37:12;12.63;;;7.82;;
35128;SDS011;21301;43.626;10.580;2023-06-22T05:39:38;12.50;;;7.10;;
35128;SDS011;21301;43.626;10.580;2023-06-22T05:42:07;13.82;;;7.57;;
35128;SDS011;21301;43.626;10.580;2023-06-22T05:44:33;14.05;;;8.40;;
35128;SDS011;21301;43.626;10.580;2023-06-22T05:46:59;12.40;;;7.15;;
35128;SDS011;21301;43.626;10.580;2023-06-22T05:49:25;13.40;;;7.63;;
35128;SDS011;21301;43.626;10.580;2023-06-22T05:51:55;12.98;;;8.20;;
35128;SDS011;21301;43.626;10.580;2023-06-22T05:54:22;17.52;;;8.63;;
35128;SDS011;21301;43.626;10.580;2023-06-22T05:56:47;15.68;;;8.95;;
35128;SDS011;21301;43.626;10.580;2023-06-22T05:59:13;12.18;;;7.93;;
35128;SDS011;21301;43.626;10.580;2023-06-22T06:01:39;16.77;;;8.00;;
35128;SDS011;21301;43.626;10.580;2023-06-22T06:04:05;12.73;;;7.32;;
35128;SDS011;21301;43.626;10.580;2023-06-22T06:06:34;14.52;;;8.70;;
35128;SDS011;21301;43.626;10.580;2023-06-22T06:09:05;19.23;;;8.15;;
35128;SDS011;21301;43.626;10.580;2023-06-22T06:11:32;12.32;;;7.72;;
35128;SDS011;21301;43.626;10.580;2023-06-22T06:13:58;13.25;;;8.63;;
35128;SDS011;21301;43.626;10.580;2023-06-22T06:16:24;16.55;;;7.95;;
35128;SDS011;21301;43.626;10.580;2023-06-22T06:18:50;12.48;;;7.10;;
35128;SDS011;21301;43.626;10.580;2023-06-22T06:21:18;15.60;;;8.70;;
35128;SDS011;21301;43.626;10.580;2023-06-22T06:23:44;12.23;;;6.88;;
35128;SDS011;21301;43.626;10.580;2023-06-22T06:26:10;15.70;;;6.80;;
35128;SDS011;21301;43.626;10.580;2023-06-22T06:28:35;21.40;;;6.82;;
35128;SDS011;21301;43.626;10.580;2023-06-22T06:31:01;15.15;;;6.57;;
35128;SDS011;21301;43.626;10.580;2023-06-22T06:33:27;12.45;;;6.70;;
35128;SDS011;21301;43.626;10.580;2023-06-22T06:35:53;10.95;;;6.40;;
35128;SDS011;21301;43.626;10.580;2023-06-22T06:38:20;16.30;;;7.50;;
35128;SDS011;21301;43.626;10.580;2023-06-22T06:40:46;14.85;;;6.43;;
35128;SDS011;21301;43.626;10.580;2023-06-22T06:43:14;9.93;;;6.40;;
35128;SDS011;21301;43.626;10.580;2023-06-22T06:45:39;8.65;;;5.45;;
35128;SDS011;21301;43.626;10.580;2023-06-22T06:48:05;9.38;;;5.75;;
35128;SDS011;21301;43.626;10.580;2023-06-22T06:50:31;11.10;;;6.70;;
35128;SDS011;21301;43.626;10.580;2023-06-22T06:52:57;9.88;;;5.78;;
35128;SDS011;21301;43.626;10.580;2023-06-22T06:55:24;16.40;;;6.15;;
35128;SDS011;21301;43.626;10.580;2023-06-22T06:57:50;8.02;;;5.05;;
35128;SDS011;21301;43.626;10.580;2023-06-22T07:00:18;9.50;;;5.72;;
35128;SDS011;21301;43.626;10.580;2023-06-22T07:02:44;9.52;;;5.82;;
35128;SDS011;21301;43.626;10.580;2023-06-22T07:05:11;10.25;;;4.90;;
35128;SDS011;21301;43.626;10.580;2023-06-22T07:07:38;9.27;;;5.00;;
35128;SDS011;21301;43.626;10.580;2023-06-22T07:10:07;9.13;;;5.50;;
35128;SDS011;21301;43.626;10.580;2023-06-22T07:12:33;13.40;;;5.05;;
35128;SDS011;21301;43.626;10.580;2023-06-22T07:15:07;9.70;;;5.50;;
35128;SDS011;21301;43.626;10.580;2023-06-22T07:17:34;7.35;;;4.72;;
35128;SDS011;21301;43.626;10.580;2023-06-22T07:20:00;7.22;;;4.78;;
35128;SDS011;21301;43.626;10.580;2023-06-22T07:22:27;9.48;;;5.15;;
35128;SDS011;21301;43.626;10.580;2023-06-22T07:24:53;8.88;;;5.60;;
35128;SDS011;21301;43.626;10.580;2023-06-22T07:27:19;11.20;;;6.15;;
35128;SDS011;21301;43.626;10.580;2023-06-22T07:29:45;8.27;;;4.95;;
35128;SDS011;21301;43.626;10.580;2023-06-22T07:32:11;9.68;;;5.60;;
35128;SDS011;21301;43.626;10.580;2023-06-22T07:34:37;9.48;;;5.80;;
35128;SDS011;21301;43.626;10.580;2023-06-22T07:37:03;10.98;;;6.68;;
35128;SDS011;21301;43.626;10.580;2023-06-22T07:39:30;9.57;;;5.97;;
35128;SDS011;21301;43.626;10.580;2023-06-22T07:41:55;10.50;;;6.10;;
35128;SDS011;21301;43.626;10.580;2023-06-22T07:44:21;12.82;;;6.60;;
35128;SDS011;21301;43.626;10.580;2023-06-22T07:46:47;10.30;;;6.75;;
35128;SDS011;21301;43.626;10.580;2023-06-22T07:49:13;15.00;;;7.32;;
35128;SDS011;21301;43.626;10.580;2023-06-22T07:51:39;14.40;;;7.30;;
35128;SDS011;21301;43.626;10.580;2023-06-22T07:54:04;13.88;;;7.15;;
35128;SDS011;21301;43.626;10.580;2023-06-22T07:56:30;15.95;;;7.95;;
35128;SDS011;21301;43.626;10.580;2023-06-22T07:58:57;10.55;;;6.85;;
35128;SDS011;21301;43.626;10.580;2023-06-22T08:01:24;9.25;;;6.38;;
35128;SDS011;21301;43.626;10.580;2023-06-22T08:03:50;13.13;;;6.75;;
35128;SDS011;21301;43.626;10.580;2023-06-22T08:06:16;10.05;;;6.13;;
35128;SDS011;21301;43.626;10.580;2023-06-22T08:08:42;10.63;;;5.88;;
35128;SDS011;21301;43.626;10.580;2023-06-22T08:11:08;13.38;;;6.47;;
35128;SDS011;21301;43.626;10.580;2023-06-22T08:13:34;18.80;;;6.40;;
35128;SDS011;21301;43.626;10.580;2023-06-22T08:16:00;8.38;;;5.75;;
35128;SDS011;21301;43.626;10.580;2023-06-22T08:18:26;8.38;;;5.25;;
35128;SDS011;21301;43.626;10.580;2023-06-22T08:20:52;9.95;;;5.78;;
35128;SDS011;21301;43.626;10.580;2023-06-22T08:23:18;9.50;;;5.72;;
35128;SDS011;21301;43.626;10.580;2023-06-22T08:25:44;11.02;;;6.00;;
35128;SDS011;21301;43.626;10.580;2023-06-22T08:28:09;10.45;;;5.80;;
35128;SDS011;21301;43.626;10.580;2023-06-22T08:30:35;12.55;;;5.32;;
35128;SDS011;21301;43.626;10.580;2023-06-22T08:33:01;8.88;;;5.53;;
35128;SDS011;21301;43.626;10.580;2023-06-22T08:35:27;11.25;;;6.13;;
35128;SDS011;21301;43.626;10.580;2023-06-22T08:37:54;11.13;;;5.45;;
35128;SDS011;21301;43.626;10.580;2023-06-22T08:40:22;9.38;;;5.93;;
35128;SDS011;21301;43.626;10.580;2023-06-22T08:42:48;9.60;;;5.60;;
35128;SDS011;21301;43.626;10.580;2023-06-22T08:45:14;10.25;;;5.65;;
35128;SDS011;21301;43.626;10.580;2023-06-22T08:47:41;9.32;;;5.10;;
35128;SDS011;21301;43.626;10.580;2023-06-22T08:50:07;9.93;;;5.70;;
35128;SDS011;21301;43.626;10.580;2023-06-22T08:52:34;10.20;;;5.18;;
35128;SDS011;21301;43.626;10.580;2023-06-22T08:55:01;9.45;;;5.28;;
35128;SDS011;21301;43.626;10.580;2023-06-22T08:57:27;11.98;;;4.82;;
35128;SDS011;21301;43.626;10.580;2023-06-22T08:59:53;7.82;;;5.05;;
35128;SDS011;21301;43.626;10.580;2023-06-22T09:02:23;10.23;;;5.18;;
35128;SDS011;21301;43.626;10.580;2023-06-22T09:04:49;9.35;;;5.10;;
35128;SDS011;21301;43.626;10.580;2023-06-22T09:07:20;9.10;;;4.40;;
35128;SDS011;21301;43.626;10.580;2023-06-22T09:09:48;8.98;;;5.43;;
35128;SDS011;21301;43.626;10.580;2023-06-22T09:12:14;8.18;;;5.18;;
35128;SDS011;21301;43.626;10.580;2023-06-22T09:14:40;7.72;;;4.65;;
35128;SDS011;21301;43.626;10.580;2023-06-22T09:17:06;9.52;;;5.32;;
35128;SDS011;21301;43.626;10.580;2023-06-22T09:19:31;9.45;;;5.45;;
35128;SDS011;21301;43.626;10.580;2023-06-22T09:21:58;13.05;;;5.25;;
35128;SDS011;21301;43.626;10.580;2023-06-22T09:24:24;9.55;;;4.78;;
35128;SDS011;21301;43.626;10.580;2023-06-22T09:26:50;7.22;;;4.78;;
35128;SDS011;21301;43.626;10.580;2023-06-22T09:29:16;7.75;;;4.95;;
35128;SDS011;21301;43.626;10.580;2023-06-22T09:31:42;6.63;;;4.35;;
35128;SDS011;21301;43.626;10.580;2023-06-22T09:34:09;11.63;;;4.93;;
35128;SDS011;21301;43.626;10.580;2023-06-22T09:36:35;8.85;;;4.65;;
35128;SDS011;21301;43.626;10.580;2023-06-22T09:39:01;7.18;;;4.30;;
35128;SDS011;21301;43.626;10.580;2023-06-22T09:41:31;10.95;;;4.53;;
35128;SDS011;21301;43.626;10.580;2023-06-22T09:43:57;8.23;;;4.57;;
35128;SDS011;21301;43.626;10.580;2023-06-22T09:46:23;7.10;;;4.72;;
35128;SDS011;21301;43.626;10.580;2023-06-22T09:48:51;10.35;;;5.20;;
35128;SDS011;21301;43.626;10.580;2023-06-22T09:51:17;10.52;;;4.88;;
35128;SDS011;21301;43.626;10.580;2023-06-22T09:53:45;9.50;;;3.92;;
35128;SDS011;21301;43.626;10.580;2023-06-22T09:56:10;8.07;;;3.80;;
35128;SDS011;21301;43.626;10.580;2023-06-22T09:58:41;6.93;;;3.88;;
35128;SDS011;21301;43.626;10.580;2023-06-22T10:01:08;7.32;;;4.63;;
35128;SDS011;21301;43.626;10.580;2023-06-22T10:03:39;7.90;;;4.32;;
35128;SDS011;21301;43.626;10.580;2023-06-22T10:06:06;6.07;;;4.32;;
35128;SDS011;21301;43.626;10.580;2023-06-22T10:08:33;7.47;;;4.18;;
35128;SDS011;21301;43.626;10.580;2023-06-22T10:11:05;5.65;;;3.95;;
35128;SDS011;21301;43.626;10.580;2023-06-22T10:13:31;9.68;;;3.90;;
35128;SDS011;21301;43.626;10.580;2023-06-22T10:15:57;7.57;;;4.00;;
35128;SDS011;21301;43.626;10.580;2023-06-22T10:18:22;6.25;;;4.25;;
35128;SDS011;21301;43.626;10.580;2023-06-22T10:20:49;9.43;;;4.35;;
35128;SDS011;21301;43.626;10.580;2023-06-22T10:23:21;7.28;;;4.20;;
35128;SDS011;21301;43.626;10.580;2023-06-22T10:25:47;5.30;;;3.17;;
35128;SDS011;21301;43.626;10.580;2023-06-22T10:28:13;8.50;;;3.28;;
35128;SDS011;21301;43.626;10.580;2023-06-22T10:30:40;10.02;;;3.97;;
35128;SDS011;21301;43.626;10.580;2023-06-22T10:33:07;5.88;;;3.40;;
35128;SDS011;21301;43.626;10.580;2023-06-22T10:35:37;8.88;;;3.28;;
35128;SDS011;21301;43.626;10.580;2023-06-22T10:38:03;6.88;;;3.92;;
35128;SDS011;21301;43.626;10.580;2023-06-22T10:40:29;10.13;;;3.53;;
35128;SDS011;21301;43.626;10.580;2023-06-22T10:42:55;5.75;;;3.20;;
35128;SDS011;21301;43.626;10.580;2023-06-22T10:45:21;7.88;;;3.97;;
35128;SDS011;21301;43.626;10.580;2023-06-22T10:47:47;5.40;;;3.17;;
35128;SDS011;21301;43.626;10.580;2023-06-22T10:50:13;8.10;;;3.35;;
35128;SDS011;21301;43.626;10.580;2023-06-22T10:52:39;6.88;;;3.80;;
35128;SDS011;21301;43.626;10.580;2023-06-22T10:55:06;10.13;;;4.10;;
35128;SDS011;21301;43.626;10.580;2023-06-22T10:57:33;6.70;;;3.65;;
35128;SDS011;21301;43.626;10.580;2023-06-22T10:59:59;7.80;;;3.60;;
35128;SDS011;21301;43.626;10.580;2023-06-22T11:02:25;7.85;;;4.07;;
35128;SDS011;21301;43.626;10.580;2023-06-22T11:04:53;6.03;;;3.33;;
35128;SDS011;21301;43.626;10.580;2023-06-22T11:07:19;8.80;;;3.85;;
35128;SDS011;21301;43.626;10.580;2023-06-22T11:09:45;7.72;;;3.90;;
35128;SDS011;21301;43.626;10.580;2023-06-22T11:12:11;11.65;;;3.70;;
35128;SDS011;21301;43.626;10.580;2023-06-22T11:14:38;7.35;;;3.90;;
35128;SDS011;21301;43.626;10.580;2023-06-22T11:17:04;6.80;;;3.15;;
35128;SDS011;21301;43.626;10.580;2023-06-22T11:19:30;13.52;;;3.67;;
35128;SDS011;21301;43.626;10.580;2023-06-22T11:21:56;6.95;;;2.80;;
35128;SDS011;21301;43.626;10.580;2023-06-22T11:24:21;5.50;;;3.08;;
35128;SDS011;21301;43.626;10.580;2023-06-22T11:26:47;5.10;;;2.75;;
35128;SDS011;21301;43.626;10.580;2023-06-22T11:29:13;5.28;;;2.92;;
35128;SDS011;21301;43.626;10.580;2023-06-22T11:31:39;9.20;;;3.35;;
35128;SDS011;21301;43.626;10.580;2023-06-22T11:34:05;7.32;;;3.95;;
35128;SDS011;21301;43.626;10.580;2023-06-22T11:36:31;9.18;;;3.33;;
35128;SDS011;21301;43.626;10.580;2023-06-22T11:39:00;9.80;;;3.08;;
35128;SDS011;21301;43.626;10.580;2023-06-22T11:41:27;9.45;;;3.47;;
35128;SDS011;21301;43.626;10.580;2023-06-22T11:43:53;6.85;;;3.17;;
35128;SDS011;21301;43.626;10.580;2023-06-22T11:46:18;7.68;;;3.08;;
35128;SDS011;21301;43.626;10.580;2023-06-22T11:48:44;8.57;;;3.65;;
35128;SDS011;21301;43.626;10.580;2023-06-22T11:51:10;5.95;;;3.35;;
35128;SDS011;21301;43.626;10.580;2023-06-22T11:53:36;7.75;;;3.63;;
35128;SDS011;21301;43.626;10.580;2023-06-22T11:56:02;7.80;;;3.47;;
35128;SDS011;21301;43.626;10.580;2023-06-22T11:58:28;6.38;;;3.72;;
35128;SDS011;21301;43.626;10.580;2023-06-22T12:00:54;6.68;;;3.58;;
35128;SDS011;21301;43.626;10.580;2023-06-22T12:03:20;8.52;;;3.13;;
35128;SDS011;21301;43.626;10.580;2023-06-22T12:05:50;8.82;;;4.50;;
35128;SDS011;21301;43.626;10.580;2023-06-22T12:08:19;6.60;;;4.07;;
35128;SDS011;21301;43.626;10.580;2023-06-22T12:10:45;6.63;;;3.78;;
35128;SDS011;21301;43.626;10.580;2023-06-22T12:13:10;8.00;;;3.90;;
35128;SDS011;21301;43.626;10.580;2023-06-22T12:15:36;5.85;;;3.28;;
35128;SDS011;21301;43.626;10.580;2023-06-22T12:18:02;10.05;;;3.20;;
35128;SDS011;21301;43.626;10.580;2023-06-22T12:20:28;8.48;;;3.65;;
35128;SDS011;21301;43.626;10.580;2023-06-22T12:22:54;6.05;;;3.60;;
35128;SDS011;21301;43.626;10.580;2023-06-22T12:25:21;6.15;;;3.75;;
35128;SDS011;21301;43.626;10.580;2023-06-22T12:27:47;7.38;;;4.10;;
35128;SDS011;21301;43.626;10.580;2023-06-22T12:30:13;6.25;;;3.58;;
35128;SDS011;21301;43.626;10.580;2023-06-22T12:32:39;7.55;;;3.72;;
35128;SDS011;21301;43.626;10.580;2023-06-22T12:35:05;6.95;;;3.30;;
35128;SDS011;21301;43.626;10.580;2023-06-22T12:37:33;8.02;;;3.55;;
35128;SDS011;21301;43.626;10.580;2023-06-22T12:39:59;10.40;;;3.97;;
35128;SDS011;21301;43.626;10.580;2023-06-22T12:42:25;6.75;;;3.50;;
35128;SDS011;21301;43.626;10.580;2023-06-22T12:44:53;6.25;;;3.47;;
35128;SDS011;21301;43.626;10.580;2023-06-22T12:47:18;6.65;;;3.38;;
35128;SDS011;21301;43.626;10.580;2023-06-22T12:49:45;7.22;;;3.78;;
35128;SDS011;21301;43.626;10.580;2023-06-22T12:52:11;8.27;;;3.80;;
35128;SDS011;21301;43.626;10.580;2023-06-22T12:54:37;11.73;;;4.63;;
35128;SDS011;21301;43.626;10.580;2023-06-22T12:57:02;12.38;;;4.18;;
35128;SDS011;21301;43.626;10.580;2023-06-22T12:59:28;9.70;;;3.63;;
35128;SDS011;21301;43.626;10.580;2023-06-22T13:01:54;6.88;;;4.22;;
35128;SDS011;21301;43.626;10.580;2023-06-22T13:04:20;11.23;;;4.25;;
35128;SDS011;21301;43.626;10.580;2023-06-22T13:06:47;8.55;;;3.35;;
35128;SDS011;21301;43.626;10.580;2023-06-22T13:09:19;7.43;;;3.65;;
35128;SDS011;21301;43.626;10.580;2023-06-22T13:11:45;9.00;;;4.05;;
35128;SDS011;21301;43.626;10.580;2023-06-22T13:14:10;6.18;;;3.10;;
35128;SDS011;21301;43.626;10.580;2023-06-22T13:16:36;7.95;;;3.50;;
35128;SDS011;21301;43.626;10.580;2023-06-22T13:19:02;6.57;;;3.38;;
35128;SDS011;21301;43.626;10.580;2023-06-22T13:21:28;8.25;;;3.70;;
35128;SDS011;21301;43.626;10.580;2023-06-22T13:23:54;12.90;;;4.13;;
35128;SDS011;21301;43.626;10.580;2023-06-22T13:26:20;9.98;;;4.35;;
35128;SDS011;21301;43.626;10.580;2023-06-22T13:28:47;7.75;;;3.75;;
35128;SDS011;21301;43.626;10.580;2023-06-22T13:31:13;8.02;;;3.60;;
35128;SDS011;21301;43.626;10.580;2023-06-22T13:33:38;11.70;;;4.43;;
35128;SDS011;21301;43.626;10.580;2023-06-22T13:36:06;7.97;;;3.63;;
35128;SDS011;21301;43.626;10.580;2023-06-22T13:38:32;12.15;;;4.72;;
35128;SDS011;21301;43.626;10.580;2023-06-22T13:41:04;11.77;;;3.72;;
35128;SDS011;21301;43.626;10.580;2023-06-22T13:43:30;7.75;;;3.60;;
35128;SDS011;21301;43.626;10.580;2023-06-22T13:45:56;10.60;;;4.32;;
35128;SDS011;21301;43.626;10.580;2023-06-22T13:48:22;10.25;;;4.03;;
35128;SDS011;21301;43.626;10.580;2023-06-22T13:50:48;8.20;;;3.85;;
35128;SDS011;21301;43.626;10.580;2023-06-22T13:53:14;7.38;;;3.40;;
35128;SDS011;21301;43.626;10.580;2023-06-22T14:14:04;7.20;;;3.50;;
35128;SDS011;21301;43.626;10.580;2023-06-22T14:16:29;11.57;;;3.53;;
35128;SDS011;21301;43.626;10.580;2023-06-22T14:18:55;9.10;;;3.58;;
35128;SDS011;21301;43.626;10.580;2023-06-22T14:21:23;9.63;;;3.80;;
35128;SDS011;21301;43.626;10.580;2023-06-22T14:23:50;5.47;;;3.33;;
35128;SDS011;21301;43.626;10.580;2023-06-22T14:26:21;11.00;;;3.67;;
35128;SDS011;21301;43.626;10.580;2023-06-22T14:28:51;14.70;;;3.58;;
35128;SDS011;21301;43.626;10.580;2023-06-22T14:31:19;13.38;;;3.40;;
35128;SDS011;21301;43.626;10.580;2023-06-22T14:33:47;12.27;;;2.90;;
35128;SDS011;21301;43.626;10.580;2023-06-22T14:36:14;7.32;;;3.50;;
35128;SDS011;21301;43.626;10.580;2023-06-22T14:38:40;6.25;;;3.00;;
35128;SDS011;21301;43.626;10.580;2023-06-22T14:41:07;11.95;;;3.90;;
35128;SDS011;21301;43.626;10.580;2023-06-22T14:43:34;7.63;;;3.42;;
35128;SDS011;21301;43.626;10.580;2023-06-22T14:46:01;6.72;;;2.95;;
35128;SDS011;21301;43.626;10.580;2023-06-22T14:48:28;8.30;;;3.47;;
35128;SDS011;21301;43.626;10.580;2023-06-22T14:50:56;7.80;;;3.53;;
35128;SDS011;21301;43.626;10.580;2023-06-22T14:53:23;9.98;;;3.30;;
35128;SDS011;21301;43.626;10.580;2023-06-22T14:55:49;7.93;;;3.20;;
35128;SDS011;21301;43.626;10.580;2023-06-22T14:58:17;7.53;;;4.22;;
35128;SDS011;21301;43.626;10.580;2023-06-22T15:00:42;9.50;;;3.20;;